Time;durP1;ratioP1;P1;durP2;ratioP2;P2;SDS_P1;SDS_P2;PMS_P1;PMS_P2;Temp;Humidity;BMP_temperature;BMP_pressure;BME280_temperature;BME280_humidity;BME280_pressure;Samples;Min_cycle;Max_cycle;Signal;HPM_P1;HPM_P2
2023/06/11 00:00:32;;;;;;;9.50;8.48;;;;;;;20.93;86.59;100301.06;4932549;28;20055;-71
2023/06/11 00:02:59;;;;;;;9.07;8.15;;;;;;;20.75;86.96;100283.91;4939460;28;20115;-72
2023/06/11 00:05:27;;;;;;;9.50;8.50;;;;;;;20.75;87.66;100292.81;4931801;29;20204;-71
2023/06/11 00:07:55;;;;;;;9.32;8.40;;;;;;;20.78;88.67;100307.84;4950319;28;20043;-71
2023/06/11 00:10:23;;;;;;;11.40;8.50;;;;;;;20.77;88.85;100316.91;4933727;29;20593;-72
2023/06/11 00:12:50;;;;;;;9.00;8.10;;;;;;;20.79;89.89;100312.22;4950676;28;20592;-72
2023/06/11 00:15:17;;;;;;;9.85;8.80;;;;;;;20.74;89.81;100304.56;4934315;29;20077;-71
2023/06/11 00:17:45;;;;;;;9.93;8.93;;;;;;;20.78;89.87;100319.44;4937770;29;20047;-71
2023/06/11 00:20:13;;;;;;;9.73;8.73;;;;;;;20.75;90.40;100311.66;4957544;28;20043;-71
2023/06/11 00:22:40;;;;;;;9.50;8.60;;;;;;;20.79;90.00;100323.81;4951969;28;20054;-72
2023/06/11 00:25:09;;;;;;;9.30;8.43;;;;;;;20.76;89.94;100328.66;4938499;28;20074;-71
2023/06/11 00:27:37;;;;;;;9.07;8.27;;;;;;;20.66;90.34;100318.72;4934563;28;20766;-72
2023/06/11 00:30:05;;;;;;;9.27;8.48;;;;;;;20.61;90.92;100315.59;4951875;28;20131;-73
2023/06/11 00:32:35;;;;;;;9.45;8.43;;;;;;;20.58;91.47;100320.41;4950474;28;20066;-72
2023/06/11 00:35:07;;;;;;;10.00;8.38;;;;;;;20.53;92.30;100315.41;4957750;28;20082;-72
2023/06/11 00:37:35;;;;;;;;;;;;;;;20.58;92.43;100332.00;4950574;28;20588;-70
2023/06/11 00:40:08;;;;;;;10.98;9.65;;;;;;;20.51;93.16;100330.84;4952720;28;19927;-71
2023/06/11 00:42:36;;;;;;;9.38;8.48;;;;;;;20.44;93.65;100321.63;4951974;28;20048;-71
2023/06/11 00:45:06;;;;;;;10.23;8.80;;;;;;;20.35;94.31;100321.56;4932551;28;20047;-71
2023/06/11 00:47:36;;;;;;;9.73;8.63;;;;;;;20.38;95.02;100326.69;4934671;29;20070;-71
2023/06/11 00:50:08;;;;;;;11.63;9.23;;;;;;;20.36;95.38;100324.16;4951150;28;20047;-71
2023/06/11 00:52:35;;;;;;;9.38;8.48;;;;;;;20.34;95.75;100323.41;4938127;29;20043;-72
2023/06/11 00:55:02;;;;;;;9.63;8.65;;;;;;;20.24;96.71;100318.00;4935049;29;20047;-71
2023/06/11 00:57:29;;;;;;;10.05;9.05;;;;;;;20.26;97.02;100329.47;4932424;29;20078;-72
2023/06/11 00:59:57;;;;;;;10.45;8.77;;;;;;;20.18;97.41;100325.72;4935429;29;20478;-71
2023/06/11 01:02:36;;;;;;;9.65;8.75;;;;;;;20.19;97.27;100332.81;4947930;28;20053;-71
2023/06/11 01:05:05;;;;;;;10.20;9.20;;;;;;;20.14;97.23;100324.31;4953763;28;20783;-70
2023/06/11 01:07:41;;;;;;;9.95;8.85;;;;;;;20.13;98.43;100331.53;4935472;28;20059;-72
2023/06/11 01:10:08;;;;;;;9.60;8.57;;;;;;;20.09;99.14;100329.25;4951269;28;20055;-71
2023/06/11 01:12:36;;;;;;;11.95;9.25;;;;;;;20.08;98.98;100330.22;4942806;28;20104;-71
2023/06/11 01:15:03;;;;;;;9.75;8.40;;;;;;;20.02;99.61;100330.75;4950402;28;20054;-72
2023/06/11 01:17:46;;;;;;;9.77;8.70;;;;;;;19.98;100.00;100329.34;4948499;28;20102;-71
2023/06/11 01:20:17;;;;;;;10.43;9.27;;;;;;;19.93;100.00;100321.66;4948431;28;20051;-71
2023/06/11 01:23:06;;;;;;;9.95;8.95;;;;;;;19.93;100.00;100327.03;4942915;29;20043;-71
2023/06/11 01:26:01;;;;;;;11.80;9.20;;;;;;;19.91;100.00;100329.84;4952818;28;20505;-71
2023/06/11 01:28:31;;;;;;;11.02;9.02;;;;;;;19.89;100.00;100330.97;4951733;28;20054;-71
2023/06/11 01:31:02;;;;;;;9.30;8.45;;;;;;;19.86;100.00;100334.78;4935060;28;20070;-71
2023/06/11 01:33:34;;;;;;;9.25;8.40;;;;;;;19.84;100.00;100333.19;4947254;28;20094;-71
2023/06/11 01:36:01;;;;;;;10.48;9.25;;;;;;;19.78;100.00;100328.38;4954332;28;20055;-71
2023/06/11 01:38:34;;;;;;;9.35;8.45;;;;;;;19.74;100.00;100335.84;4948277;28;20048;-71
2023/06/11 01:41:01;;;;;;;9.50;8.50;;;;;;;19.73;100.00;100335.97;4933666;28;20059;-72
2023/06/11 01:43:28;;;;;;;10.00;8.55;;;;;;;19.73;100.00;100330.59;4945604;28;20051;-71
2023/06/11 01:45:58;;;;;;;10.52;9.52;;;;;;;19.67;100.00;100331.13;4932556;28;20051;-70
2023/06/11 01:48:25;;;;;;;10.98;9.32;;;;;;;19.61;100.00;100327.13;4951075;28;20047;-71
2023/06/11 01:50:52;;;;;;;10.80;9.70;;;;;;;19.51;100.00;100326.22;4930923;28;20054;-71
2023/06/11 01:53:20;;;;;;;9.98;9.00;;;;;;;19.43;100.00;100318.78;4947427;28;20054;-71
2023/06/11 01:55:47;;;;;;;10.18;9.05;;;;;;;19.40;100.00;100324.41;4925804;29;20436;-70
2023/06/11 01:58:16;;;;;;;11.02;9.05;;;;;;;19.38;100.00;100328.19;4914276;28;21080;-71
2023/06/11 02:00:43;;;;;;;10.30;9.07;;;;;;;19.36;100.00;100333.69;4947174;28;20051;-72
2023/06/11 02:03:11;;;;;;;10.15;9.13;;;;;;;19.34;100.00;100338.34;4948090;28;20149;-71
2023/06/11 02:05:38;;;;;;;13.07;9.80;;;;;;;19.35;100.00;100334.69;4934013;29;20054;-71
2023/06/11 02:08:04;;;;;;;10.15;9.10;;;;;;;19.23;100.00;100308.84;4946195;28;20123;-72
2023/06/11 02:10:31;;;;;;;11.32;9.65;;;;;;;19.28;100.00;100331.66;4948298;28;20129;-72
2023/06/11 02:13:00;;;;;;;10.13;9.13;;;;;;;19.31;100.00;100335.06;4949555;28;20055;-71
2023/06/11 02:15:27;;;;;;;10.65;9.57;;;;;;;19.27;100.00;100332.63;4947197;28;20071;-71
2023/06/11 02:17:53;;;;;;;9.70;8.80;;;;;;;19.20;100.00;100328.75;4922749;29;20078;-72
2023/06/11 02:20:20;;;;;;;11.68;8.90;;;;;;;19.19;100.00;100331.59;4945679;28;20043;-71
2023/06/11 02:22:48;;;;;;;10.40;9.40;;;;;;;19.13;100.00;100330.25;4932356;29;20071;-73
2023/06/11 02:25:15;;;;;;;10.70;9.70;;;;;;;19.14;100.00;100340.03;4931255;28;20142;-72
2023/06/11 02:27:41;;;;;;;11.13;10.07;;;;;;;19.08;100.00;100342.34;4929958;29;20073;-72
2023/06/11 02:30:11;;;;;;;10.02;9.07;;;;;;;19.06;100.00;100336.25;4934076;28;20414;-72
2023/06/11 02:32:39;;;;;;;11.20;9.38;;;;;;;18.97;100.00;100337.03;4930722;28;20134;-72
2023/06/11 02:35:07;;;;;;;10.38;9.30;;;;;;;18.95;100.00;100341.66;4947717;28;20502;-71
2023/06/11 02:37:34;;;;;;;12.30;9.95;;;;;;;18.83;100.00;100328.28;4930742;29;20142;-71
2023/06/11 02:40:01;;;;;;;10.55;9.50;;;;;;;18.88;100.00;100333.28;4951574;28;20099;-72
2023/06/11 02:42:30;;;;;;;11.48;9.73;;;;;;;18.88;100.00;100333.28;4943851;28;20051;-72
2023/06/11 02:44:57;;;;;;;12.10;9.93;;;;;;;18.85;100.00;100329.03;4949202;28;20051;-71
2023/06/11 02:47:26;;;;;;;11.05;9.68;;;;;;;18.88;100.00;100342.19;4945214;28;20043;-72
2023/06/11 02:49:53;;;;;;;10.80;9.70;;;;;;;18.89;100.00;100330.44;4929409;29;20058;-71
2023/06/11 02:52:20;;;;;;;10.70;9.70;;;;;;;18.91;100.00;100343.75;4950223;28;20469;-71
2023/06/11 02:54:47;;;;;;;10.50;9.40;;;;;;;18.94;100.00;100338.13;4934364;28;20494;-71
2023/06/11 02:57:17;;;;;;;9.98;8.98;;;;;;;18.88;100.00;100344.03;4943239;28;20137;-72
2023/06/11 02:59:43;;;;;;;12.77;10.30;;;;;;;18.70;100.00;100334.78;4931719;28;20054;-72
2023/06/11 03:02:10;;;;;;;10.95;9.85;;;;;;;18.77;100.00;100352.94;4931169;29;20061;-72
2023/06/11 03:04:37;;;;;;;10.77;9.73;;;;;;;18.71;100.00;100357.97;4929706;29;20521;-72
2023/06/11 03:07:04;;;;;;;11.35;9.70;;;;;;;18.68;100.00;100366.25;4939151;28;20059;-72
2023/06/11 03:09:31;;;;;;;11.35;9.95;;;;;;;18.56;100.00;100350.16;4938423;29;20130;-72
2023/06/11 03:12:00;;;;;;;10.25;9.20;;;;;;;18.60;100.00;100357.97;4932166;28;20098;-71
2023/06/11 03:14:29;;;;;;;10.70;9.60;;;;;;;18.67;100.00;100359.19;4944107;28;20044;-71
2023/06/11 03:16:57;;;;;;;10.27;9.15;;;;;;;18.70;100.00;100359.78;4933101;29;20071;-71
2023/06/11 03:19:24;;;;;;;10.77;9.65;;;;;;;18.68;100.00;100360.88;4945995;28;20043;-72
2023/06/11 03:21:51;;;;;;;10.00;9.00;;;;;;;18.66;100.00;100365.53;4947200;28;20063;-72
2023/06/11 03:24:18;;;;;;;11.07;9.38;;;;;;;18.67;100.00;100367.22;4935555;28;20054;-72
2023/06/11 03:26:45;;;;;;;10.63;9.57;;;;;;;18.60;100.00;100355.28;4946959;28;20047;-72
2023/06/11 03:29:12;;;;;;;9.82;8.90;;;;;;;18.58;100.00;100355.38;4931967;29;20067;-72
2023/06/11 03:31:40;;;;;;;9.77;8.75;;;;;;;18.68;100.00;100379.66;4952961;28;20046;-72
2023/06/11 03:34:08;;;;;;;9.90;8.90;;;;;;;18.58;100.00;100358.94;4945676;28;20047;-72
2023/06/11 03:36:36;;;;;;;9.75;8.85;;;;;;;18.66;100.00;100371.75;4944202;29;20043;-71
2023/06/11 03:39:03;;;;;;;11.77;10.07;;;;;;;18.69;100.00;100378.69;4943702;28;20111;-72
2023/06/11 03:41:30;;;;;;;16.77;10.40;;;;;;;18.71;100.00;100369.53;4942978;29;20951;-71
2023/06/11 03:43:57;;;;;;;9.70;8.70;;;;;;;18.72;100.00;100373.94;4949187;28;20437;-71
2023/06/11 03:46:23;;;;;;;10.65;9.65;;;;;;;18.65;100.00;100374.53;4953486;28;20122;-72
2023/06/11 03:48:50;;;;;;;10.38;9.23;;;;;;;18.63;100.00;100371.97;4951499;28;20047;-71
2023/06/11 03:51:17;;;;;;;10.00;9.00;;;;;;;18.64;100.00;100364.78;4933317;29;20450;-71
2023/06/11 03:53:44;;;;;;;10.40;9.30;;;;;;;18.75;100.00;100372.81;4926396;28;20043;-71
2023/06/11 03:56:10;;;;;;;11.30;8.93;;;;;;;18.73;100.00;100377.47;4950845;28;20051;-71
2023/06/11 03:58:37;;;;;;;10.80;8.98;;;;;;;18.71;100.00;100379.41;4934509;29;20047;-71
2023/06/11 04:01:06;;;;;;;10.20;9.18;;;;;;;18.77;100.00;100384.28;4923487;29;20039;-71
2023/06/11 04:03:33;;;;;;;12.20;9.70;;;;;;;18.75;100.00;100386.22;4929188;29;20627;-71
2023/06/11 04:06:02;;;;;;;11.38;8.95;;;;;;;18.69;100.00;100390.28;4950160;28;20039;-70
2023/06/11 04:08:30;;;;;;;12.32;9.80;;;;;;;18.68;100.00;100385.03;4948555;29;20601;-72
2023/06/11 04:10:58;;;;;;;10.18;8.55;;;;;;;18.53;100.00;100371.84;4933873;29;20077;-71
2023/06/11 04:13:25;;;;;;;11.00;9.98;;;;;;;18.61;100.00;100379.28;4950936;28;20051;-72
2023/06/11 04:15:52;;;;;;;11.07;9.98;;;;;;;18.68;100.00;100385.88;4940829;29;20050;-71
2023/06/11 04:18:19;;;;;;;10.43;9.27;;;;;;;18.73;100.00;100385.53;4931819;29;20478;-71
2023/06/11 04:20:46;;;;;;;10.35;9.45;;;;;;;18.75;100.00;100380.84;4931899;28;20059;-72
2023/06/11 04:23:13;;;;;;;10.00;9.07;;;;;;;18.81;100.00;100383.06;4937013;28;20498;-71
2023/06/11 04:25:40;;;;;;;9.65;8.75;;;;;;;18.78;100.00;100375.25;4935691;29;20043;-71
2023/06/11 04:28:08;;;;;;;10.20;9.10;;;;;;;18.83;100.00;100392.69;4934869;29;20387;-71
2023/06/11 04:30:36;;;;;;;10.50;9.40;;;;;;;18.76;100.00;100382.56;4934119;29;20062;-71
2023/06/11 04:33:04;;;;;;;10.65;9.55;;;;;;;18.79;100.00;100393.91;4949520;28;20042;-71
2023/06/11 04:35:34;;;;;;;10.02;9.07;;;;;;;18.81;100.00;100394.63;4948475;28;20158;-71
2023/06/11 04:38:05;;;;;;;10.68;9.65;;;;;;;18.86;100.00;100394.28;4935023;29;20067;-71
2023/06/11 04:40:33;;;;;;;12.27;9.82;;;;;;;18.88;100.00;100392.31;4932229;28;20062;-71
2023/06/11 04:43:01;;;;;;;10.55;9.50;;;;;;;18.83;100.00;100389.16;4948839;28;20039;-72
2023/06/11 04:45:30;;;;;;;10.20;9.10;;;;;;;18.79;100.00;100368.91;4948297;28;20198;-72
2023/06/11 04:47:56;;;;;;;10.98;9.65;;;;;;;18.94;100.00;100389.13;4954160;28;20058;-71
2023/06/11 04:50:24;;;;;;;10.85;9.43;;;;;;;18.96;100.00;100384.47;4917078;29;20110;-71
2023/06/11 04:52:52;;;;;;;10.00;9.10;;;;;;;18.99;100.00;100367.28;4950056;28;20047;-71
2023/06/11 04:55:24;;;;;;;10.65;8.65;;;;;;;19.17;100.00;100387.25;4950118;28;20051;-71
2023/06/11 04:57:54;;;;;;;9.95;8.52;;;;;;;19.27;100.00;100383.66;4944810;28;20047;-72
2023/06/11 05:00:21;;;;;;;9.57;8.68;;;;;;;19.34;100.00;100393.91;4935844;28;20082;-72
2023/06/11 05:02:49;;;;;;;9.27;8.38;;;;;;;19.44;100.00;100394.81;4948758;28;20569;-72
2023/06/11 05:05:16;;;;;;;9.30;8.40;;;;;;;19.51;100.00;100377.25;4934248;29;20047;-72
2023/06/11 05:07:43;;;;;;;10.43;8.95;;;;;;;19.54;100.00;100368.91;4925873;29;20118;-72
2023/06/11 05:10:10;;;;;;;9.02;8.15;;;;;;;19.68;100.00;100386.53;4945077;28;20079;-72
2023/06/11 05:12:36;;;;;;;8.80;7.93;;;;;;;19.75;100.00;100377.84;4931399;28;20049;-72
2023/06/11 05:15:04;;;;;;;9.40;8.45;;;;;;;19.86;100.00;100383.13;4947069;28;20050;-72
2023/06/11 05:17:32;;;;;;;9.57;8.55;;;;;;;19.94;100.00;100382.50;4942308;28;20136;-72
2023/06/11 05:19:59;;;;;;;8.82;8.07;;;;;;;19.96;100.00;100381.38;4936245;29;20907;-71
2023/06/11 05:22:26;;;;;;;11.38;8.93;;;;;;;20.08;100.00;100384.00;4932800;29;20469;-71
2023/06/11 05:24:53;;;;;;;9.25;8.27;;;;;;;20.16;98.47;100386.84;4949993;28;20110;-71
2023/06/11 05:27:21;;;;;;;9.38;8.48;;;;;;;20.27;100.00;100387.63;4924101;28;20421;-73
2023/06/11 05:29:49;;;;;;;8.98;8.00;;;;;;;20.40;97.23;100391.97;4933736;29;20134;-71
2023/06/11 05:32:17;;;;;;;9.13;8.18;;;;;;;20.46;95.98;100389.56;4934984;29;20066;-71
2023/06/11 05:34:44;;;;;;;9.15;8.30;;;;;;;20.53;95.24;100385.38;4935316;29;20062;-71
2023/06/11 05:37:11;;;;;;;8.63;7.93;;;;;;;20.62;94.50;100391.75;4946507;28;20169;-71
2023/06/11 05:39:38;;;;;;;9.13;8.23;;;;;;;20.72;91.40;100387.28;4949440;28;20049;-71
2023/06/11 05:42:06;;;;;;;8.57;7.78;;;;;;;20.82;91.19;100390.00;4950035;28;20090;-72
2023/06/11 05:44:33;;;;;;;9.20;8.25;;;;;;;20.88;88.21;100384.91;4950429;28;20465;-72
2023/06/11 05:47:00;;;;;;;8.05;7.25;;;;;;;20.95;86.50;100388.75;4938504;28;20047;-73
2023/06/11 05:49:27;;;;;;;9.57;8.68;;;;;;;21.15;86.03;100403.09;4933612;29;20051;-71
2023/06/11 05:51:54;;;;;;;9.23;8.27;;;;;;;21.25;83.52;100403.97;4940425;28;20055;-72
2023/06/11 05:54:21;;;;;;;8.80;7.90;;;;;;;21.28;82.49;100401.00;4949897;28;20051;-72
2023/06/11 05:56:50;;;;;;;8.60;7.78;;;;;;;21.41;83.86;100414.19;4937789;28;20047;-72
2023/06/11 05:59:16;;;;;;;8.75;7.63;;;;;;;21.51;82.21;100412.38;4954415;28;20127;-72
2023/06/11 06:01:45;;;;;;;8.75;7.07;;;;;;;21.53;81.33;100396.06;4923265;28;20118;-72
2023/06/11 06:04:14;;;;;;;9.88;7.93;;;;;;;21.75;80.84;100411.94;4950580;28;20091;-73
2023/06/11 06:06:42;;;;;;;9.23;7.38;;;;;;;21.92;79.18;100407.66;4931289;28;20062;-72
2023/06/11 06:09:09;;;;;;;8.90;8.10;;;;;;;22.14;75.64;100420.88;4915340;29;20053;-71
2023/06/11 06:11:36;;;;;;;8.50;7.70;;;;;;;22.32;72.90;100411.03;4930303;28;20122;-71
2023/06/11 06:14:02;;;;;;;9.13;7.93;;;;;;;22.51;72.25;100414.66;4945853;28;20134;-72
2023/06/11 06:16:31;;;;;;;9.20;7.95;;;;;;;22.68;72.94;100414.69;4946671;28;20471;-73
2023/06/11 06:18:59;;;;;;;8.68;7.43;;;;;;;23.11;69.75;100415.09;4944745;28;20050;-71
2023/06/11 06:21:26;;;;;;;8.27;7.47;;;;;;;23.62;65.82;100407.16;4929819;29;20056;-71
2023/06/11 06:23:53;;;;;;;8.13;7.38;;;;;;;24.13;64.79;100408.25;4934376;28;20126;-73
2023/06/11 06:26:20;;;;;;;7.50;6.80;;;;;;;24.73;61.43;100417.25;4933043;28;20058;-72
2023/06/11 06:28:47;;;;;;;8.38;7.18;;;;;;;25.13;57.88;100410.31;4949433;28;20107;-73
2023/06/11 06:31:14;;;;;;;7.55;6.85;;;;;;;25.46;54.57;100409.38;4949561;28;20073;-73
2023/06/11 06:33:42;;;;;;;7.20;6.60;;;;;;;25.70;54.19;100419.41;4955696;28;20067;-71
2023/06/11 06:36:08;;;;;;;7.68;6.82;;;;;;;26.13;53.11;100426.34;4945958;28;20058;-72
2023/06/11 06:38:36;;;;;;;7.93;6.97;;;;;;;26.40;50.20;100417.00;4947823;28;20138;-73
2023/06/11 06:41:03;;;;;;;6.90;6.20;;;;;;;26.68;50.38;100427.44;4949789;28;20046;-73
2023/06/11 06:43:29;;;;;;;6.72;6.13;;;;;;;26.88;47.81;100429.59;4931246;28;20039;-73
2023/06/11 06:46:08;;;;;;;7.45;6.68;;;;;;;27.04;48.01;100425.13;4945650;28;20049;-73
2023/06/11 06:48:35;;;;;;;7.10;6.40;;;;;;;27.13;47.85;100437.63;4930638;28;20134;-72
2023/06/11 06:51:02;;;;;;;10.98;6.72;;;;;;;27.07;46.56;100436.50;4948361;28;20051;-72
2023/06/11 06:53:31;;;;;;;7.85;7.05;;;;;;;26.99;46.66;100438.38;4910545;28;20492;-73
2023/06/11 06:56:00;;;;;;;10.07;6.50;;;;;;;27.02;47.08;100443.47;4946819;28;20162;-72
2023/06/11 06:58:27;;;;;;;8.35;6.88;;;;;;;27.19;48.20;100445.09;4947340;28;20102;-73
2023/06/11 07:00:55;;;;;;;7.80;6.57;;;;;;;27.08;46.92;100445.47;4915553;29;20066;-73
2023/06/11 07:03:22;;;;;;;10.00;6.57;;;;;;;27.06;48.07;100444.81;4929476;29;20043;-72
2023/06/11 07:05:50;;;;;;;8.82;7.35;;;;;;;27.13;46.50;100437.63;4949433;28;20585;-73
2023/06/11 07:08:18;;;;;;;6.93;6.32;;;;;;;27.29;49.66;100437.53;4933431;29;20051;-72
2023/06/11 07:10:50;;;;;;;7.40;6.60;;;;;;;27.39;46.56;100445.50;4930652;28;20608;-72
2023/06/11 07:13:18;;;;;;;7.50;6.80;;;;;;;27.57;46.45;100448.78;4949782;28;20135;-72
2023/06/11 07:15:45;;;;;;;7.20;6.50;;;;;;;27.77;45.46;100443.72;4946536;28;20452;-73
2023/06/11 07:18:12;;;;;;;7.20;6.47;;;;;;;27.97;47.17;100439.47;4951764;28;20047;-72
2023/06/11 07:20:39;;;;;;;8.70;6.70;;;;;;;28.02;43.74;100447.09;4952674;28;20079;-72
2023/06/11 07:23:11;;;;;;;7.53;6.63;;;;;;;27.75;43.65;100440.31;4934993;28;20082;-71
2023/06/11 07:25:38;;;;;;;7.40;6.72;;;;;;;27.66;45.63;100436.00;4947325;28;20056;-72
2023/06/11 07:28:05;;;;;;;8.77;6.80;;;;;;;27.77;44.89;100447.28;4953486;28;20100;-71
2023/06/11 07:30:33;;;;;;;7.47;6.82;;;;;;;27.75;44.29;100443.03;4936385;28;20517;-72
2023/06/11 07:33:00;;;;;;;7.53;6.75;;;;;;;27.76;44.66;100442.03;4936180;29;20039;-72
2023/06/11 07:35:27;;;;;;;7.70;6.63;;;;;;;27.80;44.48;100448.81;4950932;28;20051;-73
2023/06/11 07:37:55;;;;;;;7.95;6.60;;;;;;;27.97;43.72;100436.75;4933466;29;20055;-72
2023/06/11 07:40:22;;;;;;;7.13;6.50;;;;;;;28.21;46.27;100447.44;4939437;28;20142;-72
2023/06/11 07:42:48;;;;;;;7.80;6.97;;;;;;;28.46;42.97;100452.66;4952657;28;20082;-73
2023/06/11 07:45:15;;;;;;;7.53;6.72;;;;;;;28.14;42.69;100443.75;4951854;28;20130;-71
2023/06/11 07:47:43;;;;;;;9.90;7.10;;;;;;;27.87;43.36;100444.31;4947513;28;20047;-73
2023/06/11 07:50:11;;;;;;;7.35;6.60;;;;;;;27.89;43.26;100436.81;4934982;28;20051;-71
2023/06/11 07:52:41;;;;;;;7.25;6.55;;;;;;;28.15;42.83;100433.69;4946064;28;20043;-72
2023/06/11 07:55:08;;;;;;;7.15;6.55;;;;;;;28.31;44.91;100430.00;4955633;28;20051;-72
2023/06/11 07:57:34;;;;;;;8.75;7.25;;;;;;;28.35;43.14;100420.41;4950117;28;20125;-72
2023/06/11 08:00:03;;;;;;;7.63;6.68;;;;;;;28.70;43.78;100449.66;4952549;28;20051;-73
2023/06/11 08:02:30;;;;;;;7.77;6.77;;;;;;;28.85;41.52;100445.06;4936814;28;20081;-73
2023/06/11 08:04:57;;;;;;;7.70;7.00;;;;;;;28.90;41.16;100439.91;4958564;28;20039;-71
2023/06/11 08:07:24;;;;;;;7.50;6.80;;;;;;;28.68;41.73;100421.72;4958502;28;20119;-73
2023/06/11 08:09:51;;;;;;;7.13;6.53;;;;;;;28.73;42.26;100408.41;4940499;28;20055;-73
2023/06/11 08:12:17;;;;;;;7.90;6.68;;;;;;;29.16;42.59;100447.56;4937851;29;20070;-72
2023/06/11 08:14:44;;;;;;;7.43;6.63;;;;;;;29.33;40.35;100432.66;4958979;28;20410;-74
2023/06/11 08:17:11;;;;;;;7.40;6.72;;;;;;;29.37;40.44;100441.31;4931812;29;20062;-72
2023/06/11 08:19:39;;;;;;;7.18;6.47;;;;;;;29.23;40.77;100432.13;4950874;28;20073;-73
2023/06/11 08:22:07;;;;;;;7.10;6.50;;;;;;;29.33;39.78;100432.66;4934148;29;20509;-73
2023/06/11 08:24:34;;;;;;;7.60;6.85;;;;;;;29.05;40.35;100426.25;4954210;28;20051;-73
2023/06/11 08:27:02;;;;;;;7.35;6.57;;;;;;;28.95;40.20;100421.09;4946436;28;20075;-73
2023/06/11 08:29:29;;;;;;;7.18;6.45;;;;;;;29.05;40.27;100428.13;4934424;29;20051;-72
2023/06/11 08:31:57;;;;;;;7.75;6.30;;;;;;;29.11;40.02;100424.66;4951944;28;20139;-73
2023/06/11 08:34:24;;;;;;;6.78;6.18;;;;;;;28.89;38.95;100429.19;4931919;29;20465;-73
2023/06/11 08:36:51;;;;;;;7.57;6.18;;;;;;;28.50;38.92;100408.47;4938314;28;20055;-73
2023/06/11 08:39:19;;;;;;;8.15;5.90;;;;;;;28.41;39.80;100428.69;4953119;28;20202;-73
2023/06/11 08:41:46;;;;;;;6.07;5.35;;;;;;;28.44;38.85;100424.75;4950363;28;20409;-74
2023/06/11 08:44:14;;;;;;;6.20;5.28;;;;;;;28.56;38.52;100423.25;4948152;28;20079;-73
2023/06/11 08:46:44;;;;;;;6.63;5.63;;;;;;;28.59;37.16;100422.88;4946770;28;20130;-73
2023/06/11 08:49:15;;;;;;;;;;;;;;;28.62;37.21;100426.06;4945865;28;20510;-72
2023/06/11 08:51:43;;;;;;;6.60;5.53;;;;;;;28.81;36.34;100423.81;4945194;28;19994;-73
2023/06/11 08:54:11;;;;;;;6.60;5.90;;;;;;;29.02;35.92;100414.88;4948353;28;20119;-73
2023/06/11 08:56:38;;;;;;;6.47;5.72;;;;;;;29.10;35.04;100404.72;4934238;29;20106;-72
2023/06/11 08:59:07;;;;;;;7.35;5.75;;;;;;;28.93;35.68;100401.38;4946868;28;20054;-72
2023/06/11 09:01:34;;;;;;;7.65;5.60;;;;;;;29.04;37.04;100421.81;4940342;28;20174;-72
2023/06/11 09:04:01;;;;;;;6.18;5.57;;;;;;;29.32;35.86;100408.31;4929984;29;20476;-73
2023/06/11 09:06:29;;;;;;;6.50;5.85;;;;;;;29.54;36.12;100407.31;4932940;29;20402;-73
2023/06/11 09:09:02;;;;;;;6.53;5.90;;;;;;;29.69;35.09;100409.97;4932153;28;20122;-72
2023/06/11 09:11:32;;;;;;;6.72;5.90;;;;;;;29.50;35.60;100411.47;4943478;28;20043;-73
2023/06/11 09:13:58;;;;;;;6.25;5.65;;;;;;;29.46;33.35;100382.88;4934946;28;20051;-75
2023/06/11 09:16:27;;;;;;;6.00;5.25;;;;;;;29.45;33.09;100405.75;4946955;28;20154;-73
2023/06/11 09:18:56;;;;;;;6.07;5.47;;;;;;;29.08;33.10;100395.88;4947902;28;20078;-73
2023/06/11 09:21:24;;;;;;;6.88;5.60;;;;;;;28.48;34.04;100407.00;4953580;28;20053;-73
2023/06/11 09:23:51;;;;;;;7.63;5.30;;;;;;;28.10;33.29;100396.13;4927272;28;20050;-72
2023/06/11 09:26:19;;;;;;;7.45;5.28;;;;;;;28.06;33.32;100400.25;4931299;29;20062;-73
2023/06/11 09:28:46;;;;;;;5.88;5.20;;;;;;;27.93;33.72;100398.16;4951836;28;20136;-74
2023/06/11 09:31:18;;;;;;;6.13;5.53;;;;;;;27.89;34.38;100407.72;4940400;29;20051;-72
2023/06/11 09:33:45;;;;;;;6.65;5.68;;;;;;;27.83;34.51;100394.00;4929697;29;20036;-72
2023/06/11 09:36:15;;;;;;;7.90;5.53;;;;;;;27.81;34.24;100390.63;4918342;29;20063;-72
2023/06/11 09:38:45;;;;;;;8.70;5.78;;;;;;;27.86;34.67;100408.06;4914342;29;20135;-72
2023/06/11 09:41:12;;;;;;;6.00;5.40;;;;;;;27.91;35.79;100404.81;4936206;29;20056;-72
2023/06/11 09:43:39;;;;;;;6.43;5.40;;;;;;;28.12;34.12;100413.13;4916486;29;20048;-73
2023/06/11 09:46:06;;;;;;;5.60;5.05;;;;;;;28.12;32.44;100404.13;4940195;29;20043;-73
2023/06/11 09:48:36;;;;;;;;;;;;;;;28.14;32.49;100415.66;4927752;29;20075;-72
2023/06/11 09:51:05;;;;;;;6.90;5.10;;;;;;;28.11;31.92;100405.16;4916203;29;19932;-73
2023/06/11 09:53:35;;;;;;;8.05;5.30;;;;;;;28.02;31.68;100414.44;4935371;29;20468;-74
2023/06/11 09:56:03;;;;;;;9.27;5.43;;;;;;;27.94;32.08;100412.63;4911981;29;20506;-73
2023/06/11 09:58:38;;;;;;;7.35;5.10;;;;;;;27.81;31.41;100401.50;4946805;29;20055;-72
2023/06/11 10:01:07;;;;;;;8.15;5.32;;;;;;;27.67;31.94;100399.59;4943286;29;20047;-72
2023/06/11 10:03:35;;;;;;;5.35;4.82;;;;;;;27.79;32.70;100409.84;4947316;29;20138;-74
2023/06/11 10:06:07;;;;;;;6.47;5.15;;;;;;;27.83;32.91;100413.91;4934852;29;20438;-73
2023/06/11 10:08:35;;;;;;;6.63;5.65;;;;;;;27.86;32.90;100399.91;4920858;29;20678;-73
2023/06/11 10:11:03;;;;;;;8.10;5.00;;;;;;;27.93;33.28;100410.91;4922185;29;20054;-74
2023/06/11 10:13:33;;;;;;;6.47;5.30;;;;;;;27.99;32.12;100412.91;4934428;29;20047;-73
2023/06/11 10:16:08;;;;;;;6.97;5.47;;;;;;;27.91;32.27;100407.53;4918199;29;20055;-72
2023/06/11 10:18:36;;;;;;;7.20;5.15;;;;;;;27.99;32.14;100404.75;4915626;29;20055;-72
2023/06/11 10:21:04;;;;;;;5.70;5.20;;;;;;;28.16;31.69;100406.28;4932590;29;20147;-72
2023/06/11 10:23:40;;;;;;;8.80;5.43;;;;;;;28.32;32.14;100399.03;4915566;29;20087;-72
2023/06/11 10:26:11;;;;;;;7.70;5.45;;;;;;;28.47;32.15;100402.59;4918123;29;20048;-72
2023/06/11 10:28:43;;;;;;;5.57;5.07;;;;;;;28.61;32.01;100407.19;4914127;29;20048;-75
2023/06/11 10:31:09;;;;;;;6.03;5.38;;;;;;;28.71;31.20;100409.63;4931380;29;20399;-72
2023/06/11 10:33:45;;;;;;;8.10;5.13;;;;;;;28.60;31.25;100387.28;4911010;29;20044;-72
2023/06/11 10:36:24;;;;;;;7.00;5.32;;;;;;;28.78;31.00;100402.38;4925925;29;20067;-72
2023/06/11 10:39:05;;;;;;;6.25;5.22;;;;;;;28.85;31.32;100397.88;4916085;29;20071;-72
2023/06/11 10:41:37;;;;;;;7.10;5.47;;;;;;;29.02;31.12;100407.53;4913568;29;20047;-72
2023/06/11 10:44:04;;;;;;;6.35;5.22;;;;;;;29.20;30.65;100397.06;4933280;29;20091;-72
2023/06/11 10:46:50;;;;;;;5.80;5.30;;;;;;;29.26;30.21;100398.19;4928580;29;20131;-72
2023/06/11 10:49:20;;;;;;;6.97;5.28;;;;;;;29.39;29.60;100381.97;4931403;29;20047;-72
2023/06/11 10:51:49;;;;;;;7.13;5.65;;;;;;;29.48;30.23;100396.31;4911064;29;20162;-73
2023/06/11 10:54:27;;;;;;;6.85;5.18;;;;;;;29.35;29.44;100410.66;4918784;29;20056;-73
2023/06/11 10:56:54;;;;;;;8.05;5.78;;;;;;;29.16;29.87;100393.03;4934013;29;20067;-72
2023/06/11 10:59:22;;;;;;;5.90;5.18;;;;;;;29.20;30.82;100388.88;4934933;29;20043;-72
2023/06/11 11:01:54;;;;;;;7.47;5.13;;;;;;;29.26;30.40;100392.72;4930419;29;20047;-72
2023/06/11 11:04:21;;;;;;;8.40;4.82;;;;;;;29.47;29.90;100381.84;4913571;29;20054;-72
2023/06/11 11:06:53;;;;;;;5.75;5.15;;;;;;;29.69;29.16;100390.03;4915629;29;20059;-74
2023/06/11 11:09:23;;;;;;;5.43;4.93;;;;;;;29.77;29.54;100381.69;4930746;29;20052;-72
2023/06/11 11:11:52;;;;;;;6.82;5.40;;;;;;;29.77;29.09;100382.53;4933771;29;20054;-73
2023/06/11 11:14:19;;;;;;;8.52;4.80;;;;;;;29.65;29.83;100382.22;4928892;29;20056;-72
2023/06/11 11:16:48;;;;;;;9.77;4.93;;;;;;;29.57;29.60;100368.75;4932755;29;20055;-72
2023/06/11 11:19:23;;;;;;;5.72;4.82;;;;;;;29.72;29.40;100373.28;4947289;29;20112;-72
2023/06/11 11:21:52;;;;;;;6.35;5.18;;;;;;;29.75;27.74;100367.44;4929299;29;20123;-72
2023/06/11 11:24:20;;;;;;;7.30;5.38;;;;;;;29.82;28.59;100377.34;4910488;29;20072;-72